createdAt,value
2022-12-31T00:00:47.107Z,87.89
2022-12-31T00:03:33.379Z,87.06
2022-12-31T00:06:25.035Z,87.45
2022-12-31T00:09:10.774Z,88.34
2022-12-31T00:11:56.371Z,87.21
2022-12-31T00:14:41.639Z,87.55
2022-12-31T00:17:27.140Z,87.29
2022-12-31T00:20:12.707Z,87.13
2022-12-31T00:22:59.371Z,87.61
2022-12-31T00:25:44.825Z,87.04
2022-12-31T00:28:30.210Z,86.98
2022-12-31T00:31:19.345Z,87.63
2022-12-31T00:34:06.030Z,87.25
2022-12-31T00:36:52.739Z,87.14
2022-12-31T00:39:38.156Z,87.03
2022-12-31T00:42:23.771Z,86.50
2022-12-31T00:45:09.649Z,87.21
2022-12-31T00:47:55.054Z,87.02
2022-12-31T00:50:40.606Z,86.78
2022-12-31T00:53:27.303Z,86.93
2022-12-31T00:56:19.393Z,86.74
2022-12-31T00:59:05.283Z,86.74
2022-12-31T01:01:50.655Z,86.45
2022-12-31T01:04:36.578Z,86.85
2022-12-31T01:07:22.203Z,85.86
2022-12-31T01:10:08.090Z,86.60
2022-12-31T01:12:53.609Z,87.22
2022-12-31T01:15:40.159Z,87.79
2022-12-31T01:18:25.561Z,87.05
2022-12-31T01:21:13.043Z,87.72
2022-12-31T01:23:59.909Z,87.27
2022-12-31T01:26:46.172Z,87.61
2022-12-31T01:29:31.971Z,87.27
2022-12-31T01:32:17.639Z,87.40
2022-12-31T01:35:03.440Z,87.57
2022-12-31T01:37:49.056Z,87.69
2022-12-31T01:40:39.109Z,87.61
2022-12-31T01:43:24.572Z,87.40
2022-12-31T01:46:11.575Z,87.52
2022-12-31T01:49:04.620Z,88.20
2022-12-31T01:51:59.008Z,87.73
2022-12-31T01:54:50.472Z,87.97
2022-12-31T01:57:37.548Z,87.68
2022-12-31T02:00:23.383Z,87.68
2022-12-31T02:03:09.719Z,87.50
2022-12-31T02:06:04.019Z,87.14
2022-12-31T02:08:50.455Z,87.40
2022-12-31T02:11:38.155Z,87.72
2022-12-31T02:14:28.774Z,86.95
2022-12-31T02:17:23.519Z,87.71
2022-12-31T02:21:06.737Z,87.52
2022-12-31T02:24:18.049Z,87.33
2022-12-31T02:27:33.391Z,86.86
2022-12-31T02:30:22.281Z,86.67
2022-12-31T02:33:16.946Z,87.23
2022-12-31T02:36:10.255Z,87.06
2022-12-31T02:38:56.792Z,87.12
2022-12-31T02:41:51.313Z,86.96
2022-12-31T02:44:39.140Z,87.37
2022-12-31T02:47:38.497Z,87.52
2022-12-31T02:50:38.849Z,87.33
2022-12-31T02:53:53.512Z,87.21
2022-12-31T02:56:51.991Z,86.78
2022-12-31T03:00:41.502Z,86.23
2022-12-31T03:03:27.929Z,86.64
2022-12-31T03:06:14.180Z,86.12
2022-12-31T03:09:14.769Z,86.35
2022-12-31T03:12:19.910Z,85.91
2022-12-31T03:15:06.888Z,85.93
2022-12-31T03:18:12.639Z,86.11
2022-12-31T03:21:16.969Z,85.84
2022-12-31T03:24:21.142Z,86.43
2022-12-31T03:27:06.853Z,86.09
2022-12-31T03:29:52.147Z,86.02
2022-12-31T03:32:37.491Z,86.55
2022-12-31T03:35:24.411Z,85.61
2022-12-31T03:38:10.325Z,85.56
2022-12-31T03:40:56.191Z,86.28
2022-12-31T03:43:41.499Z,85.66
2022-12-31T03:46:27.505Z,85.37
2022-12-31T03:49:12.817Z,85.95
2022-12-31T03:51:58.078Z,86.28
2022-12-31T03:54:43.481Z,86.24
2022-12-31T03:57:29.350Z,85.46
2022-12-31T04:00:21.206Z,86.49
2022-12-31T04:03:06.618Z,86.34
2022-12-31T04:05:54.519Z,85.45
2022-12-31T04:08:39.910Z,85.17
2022-12-31T04:11:25.450Z,85.18
2022-12-31T04:14:11.708Z,85.36
2022-12-31T04:16:57.475Z,85.51
2022-12-31T04:19:42.989Z,85.20
2022-12-31T04:22:29.424Z,85.37
2022-12-31T04:25:15.168Z,84.85
2022-12-31T04:28:00.906Z,85.94
2022-12-31T04:30:46.543Z,85.44
2022-12-31T04:33:31.940Z,85.35
2022-12-31T04:36:17.625Z,85.02
2022-12-31T04:39:03.364Z,85.44
2022-12-31T04:41:49.129Z,85.15
2022-12-31T04:44:35.156Z,85.05
2022-12-31T04:47:23.795Z,85.34
2022-12-31T04:50:09.668Z,84.70
2022-12-31T04:52:54.966Z,84.68
2022-12-31T04:55:41.518Z,83.82
2022-12-31T04:58:27.538Z,85.10
2022-12-31T05:01:14.820Z,84.65
2022-12-31T05:04:00.531Z,84.98
2022-12-31T05:06:46.145Z,84.38
2022-12-31T05:09:31.640Z,84.13
2022-12-31T05:12:17.095Z,84.31
2022-12-31T05:15:02.807Z,85.47
2022-12-31T05:17:48.251Z,85.08
2022-12-31T05:20:34.344Z,84.54
2022-12-31T05:23:19.874Z,84.24
2022-12-31T05:26:05.386Z,84.25
2022-12-31T05:28:51.002Z,84.48
2022-12-31T05:31:36.430Z,84.16
2022-12-31T05:34:21.830Z,84.40
2022-12-31T05:37:07.225Z,84.13
2022-12-31T05:39:54.999Z,84.60
2022-12-31T05:42:40.813Z,83.13
2022-12-31T05:45:30.731Z,83.49
2022-12-31T05:48:16.453Z,84.01
2022-12-31T05:51:01.971Z,82.71
2022-12-31T05:53:47.287Z,83.00
2022-12-31T05:56:33.029Z,82.99
2022-12-31T05:59:19.338Z,83.48
2022-12-31T06:02:05.130Z,83.04
2022-12-31T06:04:52.598Z,82.16
2022-12-31T06:07:38.377Z,83.47
2022-12-31T06:10:23.959Z,82.82
2022-12-31T06:13:09.489Z,83.39
2022-12-31T06:15:54.974Z,83.06
2022-12-31T06:18:40.532Z,83.75
2022-12-31T06:21:25.952Z,83.34
2022-12-31T06:24:11.294Z,82.44
2022-12-31T06:26:56.777Z,82.83
2022-12-31T06:29:42.291Z,82.48
2022-12-31T06:32:27.662Z,83.53
2022-12-31T06:35:13.437Z,83.06
2022-12-31T06:37:58.700Z,82.60
2022-12-31T06:40:44.129Z,83.49
2022-12-31T06:43:29.511Z,82.76
2022-12-31T06:46:17.333Z,83.08
2022-12-31T06:49:03.264Z,82.04
2022-12-31T06:51:49.132Z,81.10
2022-12-31T06:54:35.241Z,81.50
2022-12-31T06:57:21.141Z,82.18
2022-12-31T07:00:07.579Z,82.23
2022-12-31T07:03:15.223Z,82.56
2022-12-31T07:06:31.553Z,82.47
2022-12-31T07:09:32.422Z,81.61
2022-12-31T07:12:42.614Z,82.76
2022-12-31T07:15:37.245Z,82.63
2022-12-31T07:18:25.543Z,82.33
2022-12-31T07:21:18.176Z,82.95
2022-12-31T07:24:05.629Z,82.35
2022-12-31T07:27:24.412Z,82.01
2022-12-31T07:30:17.732Z,80.75
2022-12-31T07:33:18.791Z,79.95
2022-12-31T07:36:39.147Z,80.52
2022-12-31T07:39:50.399Z,80.69
2022-12-31T07:42:57.015Z,82.02
2022-12-31T07:45:59.108Z,82.18
2022-12-31T07:48:44.869Z,82.73
2022-12-31T07:51:31.037Z,81.09
2022-12-31T07:54:16.891Z,80.80
2022-12-31T07:57:02.621Z,81.81
2022-12-31T08:00:00.976Z,81.63
2022-12-31T08:02:49.208Z,81.62
2022-12-31T08:05:54.201Z,79.62
2022-12-31T08:08:46.802Z,80.38
2022-12-31T08:11:54.961Z,83.02
2022-12-31T08:14:44.927Z,81.85
2022-12-31T08:17:30.406Z,82.14
2022-12-31T08:20:17.639Z,80.55
2022-12-31T08:23:29.507Z,79.84
2022-12-31T08:26:38.409Z,81.75
2022-12-31T08:29:34.752Z,81.49
2022-12-31T08:32:42.260Z,79.39
2022-12-31T08:35:54.832Z,78.99
2022-12-31T08:38:59.916Z,79.71
2022-12-31T08:41:48.651Z,80.09
2022-12-31T08:44:34.318Z,80.75
2022-12-31T08:47:52.773Z,79.68
2022-12-31T08:50:42.292Z,81.13
2022-12-31T08:53:28.056Z,81.10
2022-12-31T08:56:31.648Z,81.90
2022-12-31T08:59:42.013Z,80.20
2022-12-31T09:02:52.766Z,80.44
2022-12-31T09:05:58.783Z,80.92
2022-12-31T09:08:50.850Z,79.92
2022-12-31T09:12:08.756Z,79.68
2022-12-31T09:15:04.274Z,78.95
2022-12-31T09:17:51.079Z,79.13
2022-12-31T09:20:44.899Z,78.84
2022-12-31T09:23:30.747Z,80.34
2022-12-31T09:26:48.057Z,78.09
2022-12-31T09:29:58.475Z,78.35
2022-12-31T09:33:01.064Z,79.59
2022-12-31T09:35:54.202Z,79.92
2022-12-31T09:38:54.510Z,77.67
2022-12-31T09:41:40.187Z,79.70
2022-12-31T09:45:08.163Z,79.70
2022-12-31T09:48:12.065Z,76.67
2022-12-31T09:51:25.424Z,80.13
2022-12-31T09:54:35.667Z,77.86
2022-12-31T09:57:48.466Z,78.96
2022-12-31T10:00:56.720Z,78.54
2022-12-31T10:04:08.682Z,79.67
2022-12-31T10:07:18.552Z,77.09
2022-12-31T10:10:13.625Z,78.90
2022-12-31T10:13:17.392Z,77.81
2022-12-31T10:16:13.788Z,78.26
2022-12-31T10:19:11.539Z,79.47
2022-12-31T10:22:28.245Z,79.50
2022-12-31T10:25:38.559Z,78.58
2022-12-31T10:28:36.683Z,76.16
2022-12-31T10:31:40.689Z,79.55
2022-12-31T10:34:35.134Z,79.23
2022-12-31T10:37:28.257Z,77.70
2022-12-31T10:40:32.501Z,75.39
2022-12-31T10:43:26.986Z,76.10
2022-12-31T10:46:43.769Z,76.78
2022-12-31T10:49:47.691Z,74.96
2022-12-31T10:52:41.370Z,76.58
2022-12-31T10:55:52.075Z,76.33
2022-12-31T10:58:40.594Z,76.13
2022-12-31T11:01:40.724Z,77.84
2022-12-31T11:04:52.859Z,77.21
2022-12-31T11:08:00.279Z,75.24
2022-12-31T11:11:13.078Z,75.72
2022-12-31T11:14:38.230Z,74.10
2022-12-31T11:17:38.722Z,75.35
2022-12-31T11:20:27.399Z,75.53
2022-12-31T11:23:34.054Z,73.39
2022-12-31T11:26:22.803Z,75.26
2022-12-31T11:29:38.319Z,72.49
2022-12-31T11:32:34.722Z,74.06
2022-12-31T11:35:34.712Z,74.17
2022-12-31T11:38:32.015Z,74.71
2022-12-31T11:41:46.600Z,77.82
2022-12-31T11:44:53.201Z,74.07
2022-12-31T11:51:42.106Z,75.29
2022-12-31T11:54:43.010Z,76.46
2022-12-31T11:57:38.765Z,74.91
2022-12-31T12:00:26.873Z,72.78
2022-12-31T12:03:12.955Z,76.49
2022-12-31T12:05:59.012Z,76.24
2022-12-31T12:08:46.666Z,72.51
2022-12-31T12:11:35.816Z,75.44
2022-12-31T12:14:32.633Z,73.75
2022-12-31T12:17:34.484Z,73.90
2022-12-31T12:20:31.999Z,74.00
2022-12-31T12:23:24.366Z,73.75
2022-12-31T12:26:38.367Z,72.04
2022-12-31T12:29:29.387Z,75.67
2022-12-31T12:32:18.503Z,74.39
2022-12-31T12:35:16.165Z,66.95
2022-12-31T12:38:07.168Z,70.19
2022-12-31T12:41:04.941Z,71.26
2022-12-31T12:44:02.188Z,71.77
2022-12-31T12:46:50.059Z,74.59
2022-12-31T12:49:42.359Z,75.16
2022-12-31T12:52:37.571Z,74.69
2022-12-31T12:55:32.197Z,72.01
2022-12-31T12:58:23.940Z,74.40
2022-12-31T13:01:25.782Z,75.67
2022-12-31T13:04:48.478Z,74.93
2022-12-31T13:08:02.778Z,75.30
2022-12-31T13:11:04.772Z,73.26
2022-12-31T13:14:30.056Z,71.65
2022-12-31T13:17:40.766Z,76.07
2022-12-31T13:20:45.477Z,73.76
2022-12-31T13:23:55.373Z,72.86
2022-12-31T13:26:42.316Z,73.74
2022-12-31T13:29:33.297Z,72.90
2022-12-31T13:32:44.894Z,72.36
2022-12-31T13:35:44.739Z,74.22
2022-12-31T13:38:49.766Z,71.78
2022-12-31T13:41:42.492Z,74.06
2022-12-31T13:44:46.140Z,72.83
2022-12-31T13:47:45.293Z,73.37
2022-12-31T13:50:44.838Z,71.77
2022-12-31T13:53:53.627Z,72.40
2022-12-31T13:56:41.058Z,71.03
2022-12-31T13:59:39.073Z,70.39
2022-12-31T14:02:33.739Z,71.53
2022-12-31T14:05:42.188Z,71.36
2022-12-31T14:08:28.187Z,71.37
2022-12-31T14:11:26.030Z,73.97
2022-12-31T14:14:24.886Z,73.72
2022-12-31T14:17:19.500Z,74.82
2022-12-31T14:20:39.159Z,72.42
2022-12-31T14:23:46.018Z,75.21
2022-12-31T14:26:38.792Z,75.35
2022-12-31T14:29:42.847Z,74.89
2022-12-31T14:32:47.113Z,76.26
2022-12-31T14:35:51.136Z,75.22
2022-12-31T14:38:54.880Z,77.70
2022-12-31T14:41:53.987Z,78.73
2022-12-31T14:44:56.364Z,77.00
2022-12-31T14:47:55.300Z,77.10
2022-12-31T14:50:44.822Z,75.71
2022-12-31T14:53:30.382Z,77.19
2022-12-31T14:56:43.221Z,76.30
2022-12-31T14:59:33.350Z,77.78
2022-12-31T15:02:34.181Z,75.83
2022-12-31T15:05:23.729Z,73.95
2022-12-31T15:08:26.922Z,74.15
2022-12-31T15:11:36.875Z,75.36
2022-12-31T15:14:43.274Z,76.30
2022-12-31T15:18:05.298Z,76.67
2022-12-31T15:20:59.235Z,77.36
2022-12-31T15:23:46.203Z,74.99
2022-12-31T15:26:32.487Z,77.53
2022-12-31T15:29:28.492Z,77.82
2022-12-31T15:32:31.173Z,76.21
2022-12-31T15:35:22.666Z,77.67
2022-12-31T15:38:11.256Z,77.24
2022-12-31T15:40:57.349Z,77.76
2022-12-31T15:43:54.565Z,76.83
2022-12-31T15:46:42.664Z,77.18
2022-12-31T15:49:37.235Z,76.48
2022-12-31T15:52:29.863Z,77.18
2022-12-31T15:55:25.302Z,76.53
2022-12-31T15:58:15.111Z,76.97
2022-12-31T16:01:06.836Z,76.44
2022-12-31T16:04:07.952Z,77.22
2022-12-31T16:06:58.504Z,78.15
2022-12-31T16:09:51.625Z,77.41
2022-12-31T16:12:44.382Z,78.07
2022-12-31T16:15:32.949Z,78.07
2022-12-31T16:18:23.079Z,78.78
2022-12-31T16:21:38.828Z,78.52
2022-12-31T16:24:37.400Z,77.96
2022-12-31T16:27:30.638Z,78.12
2022-12-31T16:30:31.029Z,79.01
2022-12-31T16:33:16.643Z,78.70
2022-12-31T16:36:02.055Z,79.50
2022-12-31T16:38:47.792Z,78.90
2022-12-31T16:41:42.970Z,77.95
2022-12-31T16:44:30.244Z,78.77
2022-12-31T16:47:36.263Z,79.14
2022-12-31T16:50:24.371Z,79.04
2022-12-31T16:53:14.571Z,78.57
2022-12-31T16:56:04.867Z,78.77
2022-12-31T16:58:57.312Z,78.10
2022-12-31T17:01:43.599Z,77.77
2022-12-31T17:04:29.541Z,77.33
2022-12-31T17:07:39.234Z,78.58
2022-12-31T17:10:32.751Z,79.52
2022-12-31T17:13:28.269Z,77.97
2022-12-31T17:16:17.784Z,78.92
2022-12-31T17:19:04.152Z,78.52
2022-12-31T17:21:50.011Z,78.98
2022-12-31T17:24:36.045Z,78.40
2022-12-31T17:27:21.782Z,78.67
2022-12-31T17:30:40.529Z,78.27
2022-12-31T17:33:30.811Z,78.02
2022-12-31T17:36:23.235Z,79.04
2022-12-31T17:39:40.055Z,77.36
2022-12-31T17:42:37.143Z,78.63
2022-12-31T17:45:22.651Z,77.38
2022-12-31T17:48:12.159Z,77.67
2022-12-31T17:50:59.957Z,79.00
2022-12-31T17:53:45.362Z,79.57
2022-12-31T17:56:30.718Z,79.08
2022-12-31T17:59:18.438Z,80.12
2022-12-31T18:02:05.300Z,77.93
2022-12-31T18:04:51.087Z,78.49
2022-12-31T18:07:37.615Z,79.12
2022-12-31T18:10:25.362Z,78.10
2022-12-31T18:13:17.634Z,78.56
2022-12-31T18:16:03.598Z,78.98
2022-12-31T18:18:49.533Z,79.21
2022-12-31T18:21:36.209Z,79.08
2022-12-31T18:24:26.015Z,79.55
2022-12-31T18:27:19.473Z,79.36
2022-12-31T18:30:08.178Z,78.77
2022-12-31T18:32:54.053Z,79.09
2022-12-31T18:36:07.837Z,78.71
2022-12-31T18:38:45.949Z,77.68
2022-12-31T18:41:51.064Z,78.43
2022-12-31T18:44:36.515Z,79.08
2022-12-31T18:47:24.713Z,78.39
2022-12-31T18:50:15.225Z,78.33
2022-12-31T18:53:01.011Z,78.43
2022-12-31T18:55:55.648Z,79.10
2022-12-31T18:58:41.489Z,79.02
2022-12-31T19:01:35.694Z,78.61
2022-12-31T19:04:27.603Z,79.30
2022-12-31T19:07:13.888Z,79.22
2022-12-31T19:09:59.470Z,79.76
2022-12-31T19:12:44.952Z,79.73
2022-12-31T19:15:41.572Z,80.04
2022-12-31T19:18:27.117Z,80.48
2022-12-31T19:21:18.840Z,80.78
2022-12-31T19:24:13.295Z,81.45
2022-12-31T19:27:00.854Z,81.36
2022-12-31T19:29:46.492Z,81.54
2022-12-31T19:32:31.714Z,81.45
2022-12-31T19:35:17.519Z,81.21
2022-12-31T19:38:05.190Z,81.18
2022-12-31T19:40:52.002Z,80.38
2022-12-31T19:43:37.405Z,80.17
2022-12-31T19:46:24.929Z,79.70
2022-12-31T19:49:14.728Z,78.99
2022-12-31T19:52:00.499Z,78.74
2022-12-31T19:54:45.993Z,79.55
2022-12-31T19:57:31.622Z,80.19
2022-12-31T20:00:18.724Z,78.40
2022-12-31T20:03:04.383Z,78.81
2022-12-31T20:05:50.282Z,77.99
2022-12-31T20:08:43.406Z,77.15
2022-12-31T20:11:28.934Z,76.77
2022-12-31T20:14:14.637Z,77.16
2022-12-31T20:17:01.132Z,76.77
2022-12-31T20:22:46.752Z,74.56
2022-12-31T20:25:32.089Z,75.72
2022-12-31T20:28:17.594Z,74.08
2022-12-31T20:31:07.997Z,75.65
2022-12-31T20:33:54.683Z,73.20
2022-12-31T20:36:41.093Z,73.48
2022-12-31T20:39:28.045Z,76.09
2022-12-31T20:42:13.665Z,75.87
2022-12-31T20:44:59.143Z,75.00
2022-12-31T20:47:44.669Z,74.29
2022-12-31T20:50:30.230Z,75.25
2022-12-31T20:53:15.689Z,75.13
2022-12-31T20:56:08.885Z,75.58
2022-12-31T20:58:54.299Z,73.81
2022-12-31T21:02:18.873Z,74.48
2022-12-31T21:04:47.027Z,74.87
2022-12-31T21:07:32.620Z,74.46
2022-12-31T21:10:18.222Z,75.65
2022-12-31T21:13:04.162Z,75.71
2022-12-31T21:15:51.656Z,74.38
2022-12-31T21:18:37.112Z,71.85
2022-12-31T21:21:23.068Z,72.93
2022-12-31T21:24:08.894Z,70.54
2022-12-31T21:26:55.977Z,70.12
2022-12-31T21:30:02.052Z,69.89
2022-12-31T21:32:49.390Z,69.28
2022-12-31T21:38:37.470Z,71.91
2022-12-31T21:41:41.723Z,68.70
2022-12-31T21:44:28.593Z,69.07
2022-12-31T21:51:16.847Z,69.55
2022-12-31T21:54:02.227Z,71.65
2022-12-31T21:56:48.937Z,74.58
2022-12-31T22:00:16.069Z,71.58
2022-12-31T22:03:24.401Z,71.42
2022-12-31T22:06:22.002Z,71.34
2022-12-31T22:09:07.484Z,73.19
2022-12-31T22:11:53.475Z,73.38
2022-12-31T22:14:39.122Z,71.44
2022-12-31T22:17:44.932Z,70.88
2022-12-31T22:20:30.433Z,74.87
2022-12-31T22:23:16.080Z,71.82
2022-12-31T22:26:02.879Z,73.94
2022-12-31T22:28:48.842Z,73.51
2022-12-31T22:31:34.667Z,71.53
2022-12-31T22:34:20.128Z,71.40
2022-12-31T22:37:35.336Z,71.17
2022-12-31T22:40:11.551Z,70.08
2022-12-31T22:42:57.047Z,69.48
2022-12-31T22:45:42.539Z,69.56
2022-12-31T22:48:28.065Z,72.03
2022-12-31T22:51:14.941Z,71.46
2022-12-31T22:54:06.852Z,72.83
2022-12-31T22:56:52.219Z,72.28
2022-12-31T22:59:37.969Z,71.59
2022-12-31T23:02:28.377Z,72.38
2022-12-31T23:05:25.603Z,70.39
2022-12-31T23:08:20.638Z,70.46
2022-12-31T23:11:11.320Z,73.12
2022-12-31T23:14:27.091Z,69.75
2022-12-31T23:24:19.091Z,72.25
2022-12-31T23:27:25.083Z,70.24
2022-12-31T23:34:36.432Z,67.57
2022-12-31T23:37:22.027Z,71.68
2022-12-31T23:40:08.626Z,71.11
2022-12-31T23:42:54.476Z,71.74
2022-12-31T23:45:40.756Z,71.28
2022-12-31T23:48:26.064Z,73.49
2022-12-31T23:51:11.786Z,71.87
2022-12-31T23:53:57.625Z,72.36
2022-12-31T23:56:43.017Z,71.29
2022-12-31T23:59:28.568Z,72.02
